Time;durP1;ratioP1;P1;durP2;ratioP2;P2;SDS_P1;SDS_P2;PMS_P1;PMS_P2;Temp;Humidity;BMP_temperature;BMP_pressure;BME280_temperature;BME280_humidity;BME280_pressure;Samples;Min_cycle;Max_cycle;Signal;HPM_P1;HPM_P2
2023/02/08 00:00:00;;;;;;;5.47;2.10;;;-3.80;99.90;;;;;;4988349;28;20026;-80
2023/02/08 00:02:26;;;;;;;6.22;3.05;;;-3.70;99.90;;;;;;4971178;28;20044;-80
2023/02/08 00:04:51;;;;;;;4.72;2.00;;;-3.80;99.90;;;;;;4974799;28;20034;-82
2023/02/08 00:07:17;;;;;;;6.20;2.63;;;-3.80;99.90;;;;;;4988774;28;20026;-80
2023/02/08 00:09:42;;;;;;;5.20;2.47;;;-3.80;99.90;;;;;;4967898;28;20038;-79
2023/02/08 00:12:08;;;;;;;6.85;3.13;;;-3.50;99.90;;;;;;4969303;28;20039;-76
2023/02/08 00:14:35;;;;;;;7.10;3.28;;;-3.50;99.90;;;;;;4967789;28;20117;-80
2023/02/08 00:17:00;;;;;;;6.30;2.50;;;-3.50;99.90;;;;;;4971338;28;20026;-76
2023/02/08 00:19:26;;;;;;;6.75;2.65;;;-3.50;99.90;;;;;;4967164;28;20035;-76
2023/02/08 00:21:52;;;;;;;6.82;3.03;;;-3.40;99.90;;;;;;4971069;28;20026;-76
2023/02/08 00:24:17;;;;;;;6.85;2.85;;;-3.60;99.90;;;;;;4988241;28;20545;-77
2023/02/08 00:26:43;;;;;;;6.35;2.67;;;-3.60;99.90;;;;;;4953595;28;20031;-78
2023/02/08 00:29:08;;;;;;;4.25;1.85;;;-3.70;99.90;;;;;;4976236;28;20490;-77
2023/02/08 00:31:34;;;;;;;5.10;2.10;;;-3.50;99.90;;;;;;4970757;28;20034;-80
2023/02/08 00:34:02;;;;;;;5.30;1.73;;;-3.50;99.90;;;;;;4970489;28;20027;-82
2023/02/08 00:36:28;;;;;;;6.07;2.13;;;-3.50;99.90;;;;;;4988660;28;20030;-76
2023/02/08 00:38:54;;;;;;;4.50;1.92;;;-3.60;99.90;;;;;;4971303;28;20058;-78
2023/02/08 00:41:20;;;;;;;5.38;2.22;;;-3.70;99.90;;;;;;4989814;28;20045;-77
2023/02/08 00:43:46;;;;;;;3.88;2.15;;;-3.60;99.90;;;;;;4954244;28;20050;-77
2023/02/08 00:46:12;;;;;;;5.55;2.33;;;-3.70;99.90;;;;;;4970589;28;20026;-78
2023/02/08 00:48:38;;;;;;;4.75;2.00;;;-3.90;99.90;;;;;;4966979;28;20425;-80
2023/02/08 00:51:11;;;;;;;5.97;2.15;;;-4.00;99.90;;;;;;4988123;28;20050;-78
2023/02/08 00:53:39;;;;;;;5.50;2.50;;;-3.70;99.90;;;;;;4955194;28;20085;-79
2023/02/08 00:56:06;;;;;;;5.13;2.00;;;-3.60;99.90;;;;;;4970121;28;20023;-81
2023/02/08 00:58:32;;;;;;;5.40;1.67;;;-3.50;99.90;;;;;;4954258;28;20027;-78
2023/02/08 01:00:57;;;;;;;6.30;2.60;;;-3.70;99.90;;;;;;4951398;28;20117;-79
2023/02/08 01:03:24;;;;;;;5.75;2.67;;;-3.90;99.90;;;;;;4992050;28;20117;-78
2023/02/08 01:05:50;;;;;;;6.82;3.42;;;-3.90;99.90;;;;;;4958528;28;20026;-76
2023/02/08 01:08:16;;;;;;;6.63;2.00;;;-3.90;99.90;;;;;;4957832;28;20395;-80
2023/02/08 01:10:42;;;;;;;4.65;1.85;;;-4.00;99.90;;;;;;4958201;28;20038;-76
2023/02/08 01:13:08;;;;;;;4.45;2.10;;;-4.00;99.90;;;;;;4964114;28;20403;-77
2023/02/08 01:15:34;;;;;;;5.18;2.03;;;-4.00;99.90;;;;;;4973608;28;20493;-79
2023/02/08 01:18:00;;;;;;;4.38;1.92;;;-3.90;99.90;;;;;;4991262;28;20022;-78
2023/02/08 01:20:26;;;;;;;4.78;1.63;;;-3.80;99.90;;;;;;4977928;28;20026;-80
2023/02/08 01:22:51;;;;;;;3.63;1.48;;;-3.80;99.90;;;;;;4958890;28;20053;-77
2023/02/08 01:25:17;;;;;;;4.05;1.80;;;-3.80;99.90;;;;;;4957695;28;20490;-77
2023/02/08 01:27:43;;;;;;;6.22;2.60;;;-3.80;99.90;;;;;;4973435;28;20050;-78
2023/02/08 01:30:09;;;;;;;4.47;1.65;;;-3.80;99.90;;;;;;4952793;28;20046;-78
2023/02/08 01:32:35;;;;;;;4.10;1.67;;;-3.80;99.90;;;;;;4957606;28;20383;-78
2023/02/08 01:35:01;;;;;;;5.28;2.20;;;-3.80;99.90;;;;;;4991668;28;20030;-80
2023/02/08 01:37:26;;;;;;;5.03;2.33;;;-3.80;99.90;;;;;;4992158;28;20487;-80
2023/02/08 01:39:52;;;;;;;5.18;1.70;;;-4.00;99.90;;;;;;4956593;28;20031;-77
2023/02/08 01:42:20;;;;;;;5.00;2.15;;;-4.10;99.90;;;;;;4974495;28;20244;-77
2023/02/08 01:45:19;;;;;;;6.90;2.65;;;-4.00;99.90;;;;;;4957762;28;20302;-82
2023/02/08 01:47:47;;;;;;;5.07;2.03;;;-4.00;99.90;;;;;;4976919;28;20035;-78
2023/02/08 01:50:17;;;;;;;5.63;2.45;;;-4.10;99.90;;;;;;4994745;28;20614;-76
2023/02/08 01:52:44;;;;;;;4.97;2.10;;;-3.90;99.90;;;;;;4973432;28;20042;-78
2023/02/08 01:55:36;;;;;;;4.55;1.73;;;-3.90;99.90;;;;;;4957245;28;20278;-77
2023/02/08 01:58:07;;;;;;;5.32;2.15;;;-3.80;99.90;;;;;;4970053;28;20038;-77
2023/02/08 02:00:32;;;;;;;;;;;-3.90;99.90;;;;;;4969942;28;20019;-79
2023/02/08 02:03:01;;;;;;;4.90;1.90;;;-4.00;99.90;;;;;;4961341;28;19918;-77
2023/02/08 02:05:49;;;;;;;7.38;1.90;;;-3.90;99.90;;;;;;4956974;28;20036;-77
2023/02/08 02:08:15;;;;;;;6.35;2.05;;;-3.90;99.90;;;;;;4973245;28;20026;-76
2023/02/08 02:10:42;;;;;;;5.55;1.75;;;-4.20;99.90;;;;;;4977364;28;20081;-78
2023/02/08 02:13:21;;;;;;;6.32;2.40;;;-4.20;99.90;;;;;;4974133;28;20061;-81
2023/02/08 02:15:47;;;;;;;5.95;2.25;;;-4.20;99.90;;;;;;4988222;28;20030;-79
2023/02/08 02:18:22;;;;;;;6.88;2.38;;;-4.20;99.90;;;;;;4953216;28;20407;-79
2023/02/08 02:21:26;;;;;;;6.05;2.00;;;-4.20;99.90;;;;;;4973274;28;20023;-82
2023/02/08 02:24:04;;;;;;;6.43;2.50;;;-4.10;99.90;;;;;;4992322;28;20034;-81
2023/02/08 02:26:47;;;;;;;6.63;2.08;;;-4.10;99.90;;;;;;4972705;28;20038;-81
2023/02/08 02:29:51;;;;;;;7.40;2.63;;;-4.30;99.90;;;;;;4976933;28;20035;-81
2023/02/08 02:32:31;;;;;;;8.23;2.85;;;-4.20;99.90;;;;;;4991307;28;20034;-81
2023/02/08 02:35:26;;;;;;;6.45;2.38;;;-4.10;99.90;;;;;;4990063;28;20045;-82
2023/02/08 02:38:13;;;;;;;6.05;1.80;;;-4.10;99.90;;;;;;4951672;28;20026;-78
2023/02/08 02:41:14;;;;;;;5.70;2.30;;;-4.20;99.90;;;;;;4975540;28;20037;-78
2023/02/08 02:43:50;;;;;;;5.45;2.13;;;-4.20;99.90;;;;;;4972207;28;20034;-79
2023/02/08 02:46:24;;;;;;;5.18;2.03;;;-4.00;99.90;;;;;;4990290;28;20037;-80
2023/02/08 02:49:16;;;;;;;8.00;3.40;;;-4.10;99.90;;;;;;4990785;28;20026;-77
2023/02/08 02:51:52;;;;;;;5.95;2.22;;;-4.10;99.90;;;;;;4990221;28;20034;-78
2023/02/08 02:54:26;;;;;;;7.45;2.30;;;-3.90;99.90;;;;;;4972102;28;20546;-77
2023/02/08 02:56:57;;;;;;;7.93;2.35;;;-3.90;99.90;;;;;;4970568;28;20390;-78
2023/02/08 02:59:25;;;;;;;5.18;2.10;;;-4.00;99.90;;;;;;4970789;28;20479;-77
2023/02/08 03:01:54;;;;;;;5.90;2.63;;;-4.10;99.90;;;;;;4972262;28;20113;-76
2023/02/08 03:04:32;;;;;;;6.38;2.28;;;-4.00;99.90;;;;;;4955590;28;20046;-80
2023/02/08 03:07:13;;;;;;;4.22;1.98;;;-4.00;99.90;;;;;;4990537;28;20027;-79
2023/02/08 03:09:48;;;;;;;5.18;2.22;;;-4.10;99.90;;;;;;4971978;28;20031;-80
2023/02/08 03:12:20;;;;;;;5.35;2.22;;;-4.50;99.90;;;;;;4971954;28;20047;-81
2023/02/08 03:15:17;;;;;;;6.30;2.30;;;-4.30;99.90;;;;;;4971677;28;20030;-78
2023/02/08 03:18:08;;;;;;;5.18;1.85;;;-4.30;99.90;;;;;;4951632;28;20399;-78
2023/02/08 03:20:34;;;;;;;6.55;2.67;;;-4.20;99.90;;;;;;4991882;28;20034;-78
2023/02/08 03:23:14;;;;;;;6.90;2.35;;;-4.10;99.90;;;;;;4954941;28;20084;-80
2023/02/08 03:25:58;;;;;;;6.15;2.85;;;-4.10;99.90;;;;;;4969955;28;20038;-78
2023/02/08 03:28:40;;;;;;;6.75;2.72;;;-4.10;99.90;;;;;;4970876;28;20113;-77
2023/02/08 03:31:23;;;;;;;6.72;2.90;;;-4.20;99.90;;;;;;4966889;28;20121;-78
2023/02/08 03:34:13;;;;;;;6.30;2.63;;;-4.20;99.90;;;;;;4977065;28;20038;-77
2023/02/08 03:36:52;;;;;;;6.63;3.00;;;-4.50;99.90;;;;;;4989463;28;20518;-79
2023/02/08 03:39:22;;;;;;;6.20;2.72;;;-4.60;99.90;;;;;;4970221;28;20042;-78
2023/02/08 03:41:52;;;;;;;5.50;2.35;;;-4.70;99.90;;;;;;4955381;28;20058;-80
2023/02/08 03:44:29;;;;;;;8.15;2.40;;;-4.50;99.90;;;;;;4988606;28;20042;-77
2023/02/08 03:47:00;;;;;;;8.63;2.80;;;-4.60;99.90;;;;;;4955903;28;20069;-79
2023/02/08 03:49:31;;;;;;;7.65;2.10;;;-4.70;99.90;;;;;;4987868;28;20109;-79
2023/02/08 03:52:00;;;;;;;5.32;2.25;;;-4.40;99.90;;;;;;4988531;28;20038;-80
2023/02/08 03:54:29;;;;;;;;;;;-4.40;99.90;;;;;;4966308;28;20082;-79
2023/02/08 03:57:14;;;;;;;7.10;2.60;;;-4.30;99.90;;;;;;4967747;28;19953;-77
2023/02/08 03:59:42;;;;;;;5.38;2.22;;;-4.50;99.90;;;;;;4989016;28;20066;-78
2023/02/08 04:02:16;;;;;;;6.72;2.75;;;-4.40;99.90;;;;;;4969891;28;20493;-77
2023/02/08 04:04:46;;;;;;;5.60;2.30;;;-4.50;99.90;;;;;;4954902;28;20026;-77
2023/02/08 04:07:12;;;;;;;6.07;2.07;;;-4.60;99.90;;;;;;4949795;28;20050;-77
2023/02/08 04:09:38;;;;;;;5.53;2.45;;;-4.50;99.90;;;;;;4968186;28;20049;-80
2023/02/08 04:12:04;;;;;;;4.85;1.98;;;-4.60;99.90;;;;;;4988641;28;20038;-79
2023/02/08 04:14:30;;;;;;;6.03;2.17;;;-4.40;99.90;;;;;;4953544;28;20391;-79
2023/02/08 04:16:56;;;;;;;5.22;1.90;;;-4.50;99.90;;;;;;4967939;28;20489;-77
2023/02/08 04:19:21;;;;;;;4.70;1.80;;;-4.80;99.90;;;;;;4991690;28;20117;-75
2023/02/08 04:21:47;;;;;;;5.63;2.15;;;-4.90;99.90;;;;;;4970067;28;20032;-78
2023/02/08 04:24:13;;;;;;;6.40;2.55;;;-4.60;99.90;;;;;;4988477;28;20080;-80
2023/02/08 04:26:38;;;;;;;6.70;2.53;;;-4.50;99.90;;;;;;4955245;28;20030;-78
2023/02/08 04:29:04;;;;;;;6.93;2.13;;;-4.40;99.90;;;;;;4954680;28;20050;-76
2023/02/08 04:31:30;;;;;;;6.03;2.53;;;-4.40;99.90;;;;;;4976036;28;20479;-78
2023/02/08 04:33:55;;;;;;;5.43;2.38;;;-4.80;99.90;;;;;;4988576;28;20030;-80
2023/02/08 04:36:21;;;;;;;5.30;2.30;;;-4.90;99.90;;;;;;4956727;28;20030;-77
2023/02/08 04:38:47;;;;;;;6.10;2.47;;;-4.90;99.90;;;;;;4958576;28;20076;-78
2023/02/08 04:41:12;;;;;;;5.90;1.85;;;-4.90;99.90;;;;;;4977735;28;20022;-76
2023/02/08 04:43:38;;;;;;;5.75;2.60;;;-4.90;99.90;;;;;;4994130;28;20030;-78
2023/02/08 04:46:04;;;;;;;5.78;2.17;;;-4.80;99.90;;;;;;4976855;28;20077;-77
2023/02/08 04:48:29;;;;;;;6.57;2.58;;;-4.70;99.90;;;;;;4958245;28;20130;-76
2023/02/08 04:50:56;;;;;;;6.38;1.90;;;-4.60;99.90;;;;;;4957993;28;20025;-81
2023/02/08 04:53:23;;;;;;;6.25;2.70;;;-4.60;99.90;;;;;;4991774;28;20266;-80
2023/02/08 04:55:48;;;;;;;6.28;2.55;;;-4.60;99.90;;;;;;4991231;28;20080;-78
2023/02/08 04:58:14;;;;;;;6.93;2.63;;;-4.70;99.90;;;;;;4991977;28;20546;-80
2023/02/08 05:00:40;;;;;;;5.72;2.20;;;-4.60;99.90;;;;;;4991945;28;20045;-75
2023/02/08 05:03:05;;;;;;;5.97;2.10;;;-4.70;99.90;;;;;;4991697;28;20386;-74
2023/02/08 05:05:31;;;;;;;6.63;2.22;;;-4.80;99.90;;;;;;4973984;28;20018;-76
2023/02/08 05:07:57;;;;;;;6.20;2.15;;;-4.70;99.90;;;;;;4958309;28;20026;-77
2023/02/08 05:10:23;;;;;;;6.22;2.58;;;-4.70;99.90;;;;;;4990986;28;20038;-77
2023/02/08 05:12:49;;;;;;;5.80;2.22;;;-4.70;99.90;;;;;;4992388;28;20058;-79
2023/02/08 05:15:14;;;;;;;6.63;2.10;;;-4.70;99.90;;;;;;4989127;28;20027;-79
2023/02/08 05:17:40;;;;;;;5.65;2.30;;;-4.60;99.90;;;;;;4986432;28;20027;-76
2023/02/08 05:20:06;;;;;;;6.28;2.40;;;-4.60;99.90;;;;;;4973094;28;20535;-80
2023/02/08 05:22:32;;;;;;;9.43;2.72;;;-4.80;99.90;;;;;;4977618;28;20054;-76
2023/02/08 05:24:58;;;;;;;6.05;2.38;;;-4.80;99.90;;;;;;4991552;28;20475;-79
2023/02/08 05:27:24;;;;;;;6.72;2.22;;;-4.70;99.90;;;;;;4991691;28;20034;-77
2023/02/08 05:29:50;;;;;;;9.38;3.35;;;-4.60;99.90;;;;;;4991681;28;20455;-78
2023/02/08 05:32:16;;;;;;;5.32;2.28;;;-4.50;99.90;;;;;;4957465;28;20133;-78
2023/02/08 05:34:41;;;;;;;4.97;1.98;;;-4.60;99.90;;;;;;4977591;28;20030;-77
2023/02/08 05:37:07;;;;;;;5.07;2.60;;;-4.70;99.90;;;;;;4974120;28;20072;-76
2023/02/08 05:39:32;;;;;;;6.80;2.75;;;-4.80;99.90;;;;;;4978030;28;20022;-77
2023/02/08 05:41:58;;;;;;;5.20;2.13;;;-4.70;99.90;;;;;;4971956;28;20034;-76
2023/02/08 05:44:24;;;;;;;6.13;2.00;;;-4.80;99.90;;;;;;4976106;28;20030;-77
2023/02/08 05:46:49;;;;;;;6.35;2.60;;;-4.90;99.90;;;;;;4955954;28;20109;-77
2023/02/08 05:49:15;;;;;;;6.15;2.20;;;-4.90;99.90;;;;;;4956647;28;20501;-76
2023/02/08 05:51:41;;;;;;;5.38;2.10;;;-4.90;99.90;;;;;;4990873;28;20030;-78
2023/02/08 05:54:06;;;;;;;6.45;2.40;;;-5.00;99.90;;;;;;4970032;28;20035;-79
2023/02/08 05:56:32;;;;;;;7.35;2.55;;;-4.90;99.90;;;;;;4977018;28;20099;-78
2023/02/08 05:59:02;;;;;;;5.60;1.98;;;-4.90;99.90;;;;;;4971862;28;20118;-79
2023/02/08 06:01:28;;;;;;;5.32;1.92;;;-4.90;99.90;;;;;;4982563;28;20023;-78
2023/02/08 06:03:54;;;;;;;4.80;1.88;;;-4.80;99.90;;;;;;4956434;28;20506;-80
2023/02/08 06:06:20;;;;;;;6.10;2.13;;;-4.80;99.90;;;;;;4976778;28;20066;-76
2023/02/08 06:08:46;;;;;;;5.60;2.53;;;-5.10;99.90;;;;;;4973000;28;20391;-80
2023/02/08 06:11:12;;;;;;;5.90;2.72;;;-4.90;99.90;;;;;;4993585;28;20046;-75
2023/02/08 06:13:38;;;;;;;6.85;2.33;;;-4.80;99.90;;;;;;4969839;28;20039;-78
2023/02/08 06:16:04;;;;;;;5.25;2.33;;;-5.00;99.90;;;;;;4970246;28;20046;-77
2023/02/08 06:18:30;;;;;;;5.63;2.40;;;-5.00;99.90;;;;;;4971645;28;20125;-76
2023/02/08 06:20:56;;;;;;;7.07;2.50;;;-4.90;99.90;;;;;;4990866;28;20129;-79
2023/02/08 06:23:23;;;;;;;6.72;2.28;;;-4.90;99.90;;;;;;4954087;28;20027;-76
2023/02/08 06:25:49;;;;;;;8.32;2.58;;;-4.90;99.90;;;;;;4972537;28;20518;-78
2023/02/08 06:28:15;;;;;;;7.35;2.50;;;-5.00;99.90;;;;;;4972450;28;20034;-80
2023/02/08 06:30:40;;;;;;;5.38;2.28;;;-4.90;99.90;;;;;;4982342;28;20482;-79
2023/02/08 06:33:06;;;;;;;6.38;2.70;;;-5.10;99.90;;;;;;4968230;28;20031;-75
2023/02/08 06:35:32;;;;;;;6.85;3.08;;;-5.00;99.90;;;;;;4988594;28;20030;-76
2023/02/08 06:37:58;;;;;;;7.50;2.88;;;-5.20;99.90;;;;;;4973074;28;20026;-79
2023/02/08 06:40:24;;;;;;;5.68;2.33;;;-5.20;99.90;;;;;;4990025;28;20160;-77
2023/02/08 06:42:49;;;;;;;5.63;2.57;;;-5.10;99.90;;;;;;4968716;28;20065;-76
2023/02/08 06:45:16;;;;;;;6.30;2.63;;;-5.30;99.90;;;;;;4981716;28;20554;-77
2023/02/08 06:47:42;;;;;;;6.43;3.10;;;-5.40;99.90;;;;;;4955431;28;20418;-77
2023/02/08 06:50:08;;;;;;;7.18;3.15;;;-5.40;99.90;;;;;;4972151;28;20030;-78
2023/02/08 06:52:34;;;;;;;6.40;2.40;;;-5.30;99.90;;;;;;4989770;28;20042;-79
2023/02/08 06:55:00;;;;;;;6.57;2.70;;;-5.30;99.90;;;;;;4969533;28;20027;-79
2023/02/08 06:57:26;;;;;;;5.35;2.05;;;-5.40;99.90;;;;;;4989360;28;20741;-79
2023/02/08 06:59:51;;;;;;;7.25;2.80;;;-5.50;99.90;;;;;;4955875;28;20106;-80
2023/02/08 07:02:19;;;;;;;8.27;3.17;;;-5.40;99.90;;;;;;4971607;28;20463;-79
2023/02/08 07:04:46;;;;;;;7.55;2.55;;;-5.00;99.90;;;;;;4969846;28;20061;-79
2023/02/08 07:07:13;;;;;;;7.78;3.03;;;-5.10;99.90;;;;;;4967289;28;20023;-77
2023/02/08 07:09:39;;;;;;;7.22;3.05;;;-5.20;99.90;;;;;;4954699;28;20030;-77
2023/02/08 07:12:05;;;;;;;7.63;2.88;;;-5.30;99.90;;;;;;4972139;28;20451;-79
2023/02/08 07:14:35;;;;;;;8.48;2.95;;;-5.30;99.90;;;;;;4990246;28;20026;-76
2023/02/08 07:17:02;;;;;;;7.07;2.72;;;-5.20;99.90;;;;;;4969002;28;20109;-79
2023/02/08 07:19:28;;;;;;;7.68;2.30;;;-5.20;99.90;;;;;;4971836;28;20022;-80
2023/02/08 07:21:54;;;;;;;8.10;2.85;;;-5.30;99.90;;;;;;4989219;28;20026;-78
2023/02/08 07:24:20;;;;;;;8.05;2.88;;;-5.10;99.90;;;;;;4967148;28;20035;-78
2023/02/08 07:26:46;;;;;;;6.80;2.45;;;-5.20;99.90;;;;;;4988832;28;20029;-76
2023/02/08 07:29:11;;;;;;;6.68;2.60;;;-5.10;99.90;;;;;;4954645;28;20022;-78
2023/02/08 07:31:37;;;;;;;5.88;2.20;;;-5.00;99.90;;;;;;4971116;28;20034;-80
2023/02/08 07:34:03;;;;;;;8.50;2.90;;;-5.00;99.90;;;;;;4988295;28;20096;-78
2023/02/08 07:36:29;;;;;;;7.45;2.55;;;-5.00;99.90;;;;;;4955142;28;20085;-78
2023/02/08 07:38:54;;;;;;;8.23;2.72;;;-5.20;99.90;;;;;;4987422;28;20022;-78
2023/02/08 07:41:20;;;;;;;9.15;2.88;;;-4.90;99.90;;;;;;4970475;28;20037;-76
2023/02/08 07:43:45;;;;;;;7.38;2.90;;;-4.80;99.90;;;;;;4987262;28;20029;-76
2023/02/08 07:46:20;;;;;;;7.35;2.60;;;-4.80;99.90;;;;;;4970490;28;20109;-77
2023/02/08 07:48:48;;;;;;;6.88;3.10;;;-5.00;99.90;;;;;;4971188;28;20030;-78
2023/02/08 07:51:13;;;;;;;7.15;3.15;;;-5.10;99.90;;;;;;4992193;28;20034;-78
2023/02/08 07:53:39;;;;;;;6.75;2.88;;;-5.10;99.90;;;;;;4951329;28;20048;-78
2023/02/08 07:56:05;;;;;;;8.05;3.22;;;-5.00;99.90;;;;;;4992292;28;20038;-79
2023/02/08 07:58:31;;;;;;;7.07;3.08;;;-4.90;99.90;;;;;;4970012;28;20105;-76
2023/02/08 08:00:58;;;;;;;6.88;2.47;;;-4.90;99.90;;;;;;4975035;28;20485;-79
2023/02/08 08:03:24;;;;;;;7.57;2.67;;;-4.60;99.90;;;;;;4980020;28;20037;-77
2023/02/08 08:05:50;;;;;;;6.95;2.78;;;-4.60;99.90;;;;;;4988007;28;20022;-77
2023/02/08 08:08:16;;;;;;;9.48;3.55;;;-4.50;99.90;;;;;;4989706;28;20030;-76
2023/02/08 08:10:42;;;;;;;7.35;2.78;;;-4.60;99.90;;;;;;4987481;28;20397;-76
2023/02/08 08:13:08;;;;;;;6.75;3.10;;;-4.40;99.90;;;;;;4986898;28;20039;-75
2023/02/08 08:15:33;;;;;;;6.47;2.50;;;-4.30;99.90;;;;;;4970544;28;20386;-80
2023/02/08 08:17:59;;;;;;;7.22;2.60;;;-4.30;99.90;;;;;;4970026;28;20465;-77
2023/02/08 08:20:25;;;;;;;7.78;2.67;;;-4.20;99.90;;;;;;4954570;28;20026;-79
2023/02/08 08:22:50;;;;;;;5.78;2.65;;;-3.80;99.90;;;;;;4970682;28;20057;-79
2023/02/08 08:25:16;;;;;;;6.05;2.58;;;-3.60;99.90;;;;;;4989872;28;20030;-79
2023/02/08 08:27:42;;;;;;;7.00;2.53;;;-3.40;99.90;;;;;;4970540;28;20042;-80
2023/02/08 08:30:10;;;;;;;6.13;2.55;;;-3.30;99.90;;;;;;4973319;28;20471;-76
2023/02/08 08:32:37;;;;;;;6.43;3.33;;;-3.10;99.90;;;;;;4970343;28;20106;-80
2023/02/08 08:35:03;;;;;;;7.72;2.80;;;-2.80;99.90;;;;;;4953797;28;20041;-80
2023/02/08 08:37:29;;;;;;;7.25;2.78;;;-2.70;99.90;;;;;;4987908;28;20034;-80
2023/02/08 08:39:55;;;;;;;5.90;2.42;;;-2.70;99.90;;;;;;4988364;28;20372;-80
2023/02/08 08:42:20;;;;;;;6.25;2.65;;;-2.70;99.90;;;;;;4987619;28;20045;-79
2023/02/08 08:44:46;;;;;;;6.00;2.63;;;-2.30;99.90;;;;;;4973071;28;20041;-80
2023/02/08 08:47:12;;;;;;;5.07;2.50;;;-2.30;99.90;;;;;;4969426;28;20054;-77
2023/02/08 08:49:39;;;;;;;6.70;3.42;;;-2.20;99.90;;;;;;4987637;28;20177;-80
2023/02/08 08:52:06;;;;;;;6.78;2.70;;;-1.90;99.90;;;;;;4987590;28;20042;-78
2023/02/08 08:54:33;;;;;;;7.07;3.03;;;-1.70;99.90;;;;;;4954393;28;20026;-78
2023/02/08 08:56:59;;;;;;;6.53;2.88;;;-1.60;99.90;;;;;;4972573;28;20484;-75
2023/02/08 08:59:24;;;;;;;6.65;3.17;;;-1.60;99.90;;;;;;4975210;28;20118;-76
2023/02/08 09:01:50;;;;;;;7.50;3.45;;;-1.40;99.90;;;;;;4953964;28;20506;-80
2023/02/08 09:04:16;;;;;;;5.50;2.78;;;-1.20;99.90;;;;;;4970164;28;20049;-79
2023/02/08 09:06:41;;;;;;;5.70;2.40;;;-1.00;99.90;;;;;;4953961;28;20030;-78
2023/02/08 09:09:07;;;;;;;6.57;2.90;;;-0.90;99.90;;;;;;4973664;28;20038;-79
2023/02/08 09:11:33;;;;;;;5.55;2.45;;;-0.70;99.90;;;;;;4952168;28;20050;-80
2023/02/08 09:14:03;;;;;;;6.38;2.83;;;-0.60;99.90;;;;;;4988553;28;20064;-78
2023/02/08 09:16:29;;;;;;;5.00;2.30;;;-0.50;99.90;;;;;;4975125;28;20033;-81
2023/02/08 09:18:55;;;;;;;5.95;2.55;;;-0.40;99.90;;;;;;4987443;28;20030;-80
2023/02/08 09:21:24;;;;;;;6.35;2.22;;;-0.20;99.90;;;;;;4986699;28;20105;-80
2023/02/08 09:23:49;;;;;;;4.35;2.00;;;0.00;99.90;;;;;;4973403;28;20112;-80
2023/02/08 09:26:17;;;;;;;5.43;1.95;;;0.00;99.90;;;;;;4973543;28;20066;-80
2023/02/08 09:28:43;;;;;;;6.10;2.42;;;0.10;99.90;;;;;;4957514;28;20060;-78
2023/02/08 09:31:11;;;;;;;5.60;2.40;;;0.30;99.90;;;;;;4984257;28;21852;-81
2023/02/08 09:33:38;;;;;;;6.50;3.08;;;0.40;99.90;;;;;;4991223;28;20026;-81
2023/02/08 09:36:05;;;;;;;6.15;3.20;;;0.60;99.90;;;;;;4960530;28;20022;-80
2023/02/08 09:38:31;;;;;;;6.22;2.85;;;0.70;99.90;;;;;;4973571;28;20497;-80
2023/02/08 09:41:36;;;;;;;7.22;3.15;;;0.80;99.90;;;;;;4957124;28;20479;-81
2023/02/08 09:44:14;;;;;;;5.88;3.63;;;0.90;99.90;;;;;;4963877;28;20400;-81
2023/02/08 09:46:49;;;;;;;6.47;3.55;;;1.00;99.90;;;;;;4992362;28;20072;-80
2023/02/08 09:49:20;;;;;;;6.45;2.53;;;1.20;99.90;;;;;;4990335;28;20046;-81
2023/02/08 09:51:53;;;;;;;7.45;3.63;;;1.20;99.90;;;;;;4973547;28;20034;-81
2023/02/08 09:54:27;;;;;;;10.60;3.50;;;1.30;99.90;;;;;;4950883;28;20550;-80
2023/02/08 09:56:53;;;;;;;8.15;3.95;;;1.40;99.90;;;;;;4988631;28;20030;-80
2023/02/08 09:59:31;;;;;;;8.25;4.15;;;1.60;99.90;;;;;;4966183;28;20030;-80
2023/02/08 10:02:26;;;;;;;6.90;3.35;;;1.60;99.90;;;;;;4974747;28;20037;-80
2023/02/08 10:05:14;;;;;;;6.35;3.03;;;1.70;99.90;;;;;;4954777;28;20118;-80
2023/02/08 10:07:41;;;;;;;7.38;3.35;;;1.80;99.90;;;;;;4972176;28;20031;-81
2023/02/08 10:10:31;;;;;;;7.40;3.47;;;2.00;99.90;;;;;;4989032;28;20047;-81
2023/02/08 10:13:06;;;;;;;;;;;2.20;99.90;;;;;;4990411;28;20042;-81
2023/02/08 10:15:46;;;;;;;6.25;3.35;;;2.20;99.90;;;;;;4969420;28;19916;-82
2023/02/08 10:18:30;;;;;;;7.22;3.80;;;2.30;99.90;;;;;;4968780;28;20262;-77
2023/02/08 10:21:25;;;;;;;7.93;3.75;;;2.40;99.90;;;;;;4973084;28;20443;-81
2023/02/08 10:24:25;;;;;;;5.75;3.20;;;2.50;99.90;;;;;;4990358;28;20030;-81
2023/02/08 10:27:01;;;;;;;5.68;2.92;;;2.60;99.90;;;;;;4988374;28;20029;-79
2023/02/08 10:29:40;;;;;;;5.60;2.90;;;2.70;99.90;;;;;;4989947;28;20494;-80
2023/02/08 10:32:27;;;;;;;5.55;2.28;;;2.80;99.90;;;;;;4951990;28;20440;-81
2023/02/08 10:35:02;;;;;;;6.60;3.13;;;2.90;99.90;;;;;;4990020;28;20022;-81
2023/02/08 10:37:31;;;;;;;5.50;2.40;;;3.00;99.90;;;;;;4989987;28;20031;-80
2023/02/08 10:40:07;;;;;;;6.45;3.20;;;3.10;99.90;;;;;;4971726;28;20506;-79
2023/02/08 10:42:34;;;;;;;5.65;2.35;;;3.30;99.90;;;;;;4971473;28;20033;-79
2023/02/08 10:45:15;;;;;;;5.72;2.78;;;3.30;99.90;;;;;;4971642;28;20398;-79
2023/02/08 10:47:51;;;;;;;4.88;1.95;;;3.40;99.90;;;;;;4975979;28;20506;-79
2023/02/08 10:50:32;;;;;;;4.65;1.75;;;3.40;99.90;;;;;;4953653;28;20023;-82
2023/02/08 10:52:58;;;;;;;5.95;2.40;;;3.40;99.90;;;;;;4988362;28;20045;-77
2023/02/08 10:55:26;;;;;;;4.05;1.65;;;3.50;99.90;;;;;;4959406;28;20026;-81
2023/02/08 10:57:57;;;;;;;4.55;2.40;;;3.60;99.90;;;;;;4972400;28;20027;-79
2023/02/08 11:00:30;;;;;;;3.13;1.10;;;3.80;99.90;;;;;;4972721;28;20041;-82
2023/02/08 11:03:00;;;;;;;4.45;2.35;;;3.80;99.90;;;;;;4988975;28;20038;-81
2023/02/08 11:05:37;;;;;;;4.47;2.25;;;3.90;99.90;;;;;;4970020;28;20036;-80
2023/02/08 11:08:18;;;;;;;4.80;2.63;;;4.00;99.90;;;;;;4975793;28;20031;-81
2023/02/08 11:11:07;;;;;;;7.13;2.72;;;4.10;99.90;;;;;;4988512;28;20050;-82
2023/02/08 11:13:42;;;;;;;9.32;3.15;;;4.20;99.90;;;;;;4987616;28;20064;-80
2023/02/08 11:16:19;;;;;;;5.45;2.53;;;4.30;99.90;;;;;;4975663;28;20033;-82
2023/02/08 11:18:51;;;;;;;4.25;2.58;;;4.30;99.90;;;;;;4952598;28;20050;-81
2023/02/08 11:21:32;;;;;;;4.25;2.10;;;4.30;99.90;;;;;;4972266;28;20047;-82
2023/02/08 11:24:01;;;;;;;3.80;1.80;;;4.40;99.90;;;;;;4976170;28;20065;-83
2023/02/08 11:26:29;;;;;;;6.10;1.50;;;4.50;99.90;;;;;;4989065;28;20121;-81
2023/02/08 11:28:58;;;;;;;4.63;2.35;;;4.50;99.90;;;;;;4989668;28;20081;-83
2023/02/08 11:31:24;;;;;;;3.80;1.70;;;4.50;99.90;;;;;;4971461;28;20030;-80
2023/02/08 11:34:05;;;;;;;3.78;1.83;;;4.70;99.90;;;;;;4994213;28;20046;-82
2023/02/08 11:36:33;;;;;;;3.33;1.30;;;4.70;99.90;;;;;;4965466;28;20058;-78
2023/02/08 11:39:22;;;;;;;4.90;1.75;;;4.70;99.90;;;;;;4965634;28;20061;-78
2023/02/08 11:41:51;;;;;;;4.18;1.27;;;4.90;99.90;;;;;;4987472;28;20018;-81
2023/02/08 11:44:25;;;;;;;3.28;1.30;;;4.90;99.90;;;;;;4970612;28;20062;-78
2023/02/08 11:46:52;;;;;;;4.50;2.20;;;5.00;99.90;;;;;;4969600;28;20463;-81
2023/02/08 11:49:23;;;;;;;4.20;2.22;;;5.10;99.90;;;;;;4975623;28;20482;-79
2023/02/08 11:51:49;;;;;;;3.17;1.48;;;5.20;99.90;;;;;;4988107;28;20465;-81
2023/02/08 11:54:40;;;;;;;5.90;2.53;;;5.20;99.90;;;;;;4987963;28;20034;-81
2023/02/08 11:57:18;;;;;;;3.83;1.75;;;5.30;99.90;;;;;;4954564;28;20033;-80
2023/02/08 11:59:45;;;;;;;4.43;1.67;;;5.30;99.90;;;;;;4989167;28;20045;-81
2023/02/08 12:02:38;;;;;;;3.63;1.70;;;5.40;99.90;;;;;;4987744;28;20029;-80
2023/02/08 12:05:11;;;;;;;4.03;1.42;;;5.30;99.90;;;;;;4976218;28;20034;-80
2023/02/08 12:07:40;;;;;;;4.00;1.48;;;5.30;99.90;;;;;;4988170;28;20495;-81
2023/02/08 12:10:11;;;;;;;3.47;1.10;;;5.40;99.90;;;;;;4986072;28;20069;-80
2023/02/08 12:13:18;;;;;;;3.72;1.38;;;5.40;99.90;;;;;;4986975;28;20403;-79
2023/02/08 12:16:08;;;;;;;4.53;1.52;;;5.50;99.90;;;;;;4949702;28;20047;-81
2023/02/08 12:19:05;;;;;;;3.17;1.40;;;5.60;99.90;;;;;;4966581;28;20467;-81
2023/02/08 12:21:42;;;;;;;2.88;0.70;;;5.60;99.90;;;;;;4852266;29;20043;-78
2023/02/08 12:24:26;;;;;;;3.05;1.27;;;5.70;99.90;;;;;;4884363;29;20032;-81
2023/02/08 12:27:12;;;;;;;3.17;1.05;;;5.80;99.90;;;;;;4871514;29;20037;-81
2023/02/08 12:29:43;;;;;;;3.05;0.98;;;5.80;99.90;;;;;;4884583;29;20044;-80
2023/02/08 12:32:33;;;;;;;3.13;1.10;;;5.80;99.90;;;;;;4885436;29;20053;-82
2023/02/08 12:35:25;;;;;;;3.38;0.90;;;5.80;99.90;;;;;;4868717;29;22362;-78
2023/02/08 12:41:04;;;;;;;3.15;1.05;;;5.90;99.90;;;;;;4885934;29;20040;-79
2023/02/08 12:43:42;;;;;;;2.65;0.93;;;5.80;99.90;;;;;;4885356;29;20032;-81
2023/02/08 12:46:43;;;;;;;2.83;1.08;;;5.80;99.90;;;;;;4885790;29;20549;-81
2023/02/08 12:49:39;;;;;;;2.75;1.30;;;5.90;99.90;;;;;;4886356;29;20064;-81
2023/02/08 12:52:16;;;;;;;3.38;0.70;;;6.00;99.90;;;;;;4884224;29;20405;-80
2023/02/08 12:54:44;;;;;;;3.97;0.98;;;6.00;99.90;;;;;;4869031;29;20663;-81
2023/02/08 12:57:14;;;;;;;2.17;0.77;;;6.10;99.90;;;;;;4903560;28;20048;-81
2023/02/08 12:59:45;;;;;;;;;;;6.10;99.90;;;;;;4974793;28;20033;-81
2023/02/08 13:02:18;;;;;;;3.72;0.82;;;6.00;99.90;;;;;;4976809;28;19916;-79
2023/02/08 13:04:48;;;;;;;2.15;0.88;;;6.10;99.90;;;;;;4976817;28;20443;-79
2023/02/08 13:07:25;;;;;;;3.13;0.80;;;6.30;99.90;;;;;;4993487;28;20494;-81
2023/02/08 13:10:04;;;;;;;2.50;0.73;;;6.30;99.90;;;;;;4989998;28;20053;-81
2023/02/08 13:12:37;;;;;;;2.58;0.82;;;6.10;99.90;;;;;;4953912;28;20039;-79